Time,TemperatureF,DewpointF,PressureIn,WindDirection,WindDirectionDegrees,WindSpeedMPH,WindSpeedGustMPH,Humidity,HourlyPrecipIn,Conditions,Clouds,dailyrainin,SoftwareType,DateUTC
2013-03-11 00:12:00,31.0,18.0,-100.00,ESE,119,4.0,5.0,59,0.00,,,0.40,,2013-03-11 07:12:00,
2013-03-11 00:22:00,31.0,18.0,-100.00,ESE,119,4.0,5.0,59,0.00,,,0.40,,2013-03-11 07:22:00,
2013-03-11 00:32:00,31.0,18.0,-100.00,ESE,119,4.0,5.0,59,0.00,,,0.40,,2013-03-11 07:32:00,
2013-03-11 01:22:00,36.0,10.0,-100.00,ESE,115,5.0,6.0,34,0.00,,,0.40,,2013-03-11 08:22:00,
2013-03-11 01:32:00,36.0,10.0,-100.00,ESE,115,5.0,6.0,34,0.00,,,0.40,,2013-03-11 08:32:00,
2013-03-11 01:42:00,36.0,10.0,-100.00,ESE,115,5.0,6.0,34,0.00,,,0.40,,2013-03-11 08:42:00,
2013-03-11 01:51:00,36.0,10.0,-100.00,ESE,115,5.0,6.0,34,0.00,,,0.40,,2013-03-11 08:51:00,
2013-03-11 02:12:00,34.0,20.0,-100.00,ESE,119,3.0,6.0,55,0.00,,,0.40,,2013-03-11 09:12:00,
2013-03-11 02:22:00,34.0,20.0,-100.00,ESE,119,3.0,6.0,55,0.00,,,0.40,,2013-03-11 09:22:00,
2013-03-11 02:32:00,34.0,20.0,-100.00,ESE,119,3.0,6.0,55,0.00,,,0.40,,2013-03-11 09:32:00,
2013-03-11 02:42:00,34.0,20.0,-100.00,ESE,119,3.0,6.0,55,0.00,,,0.40,,2013-03-11 09:42:00,
2013-03-11 02:52:00,34.0,20.0,-100.00,ESE,119,3.0,6.0,55,0.00,,,0.40,,2013-03-11 09:52:00,
2013-03-11 03:12:00,38.0,18.0,-100.00,ESE,114,5.0,5.0,44,0.00,,,0.40,,2013-03-11 10:12:00,
2013-03-11 03:22:00,38.0,18.0,-100.00,ESE,114,5.0,5.0,44,0.00,,,0.40,,2013-03-11 10:22:00,
2013-03-11 03:32:00,38.0,18.0,-100.00,ESE,114,5.0,5.0,44,0.00,,,0.40,,2013-03-11 10:32:00,
2013-03-11 03:41:00,38.0,18.0,-100.00,ESE,114,5.0,5.0,44,0.00,,,0.40,,2013-03-11 10:41:00,
2013-03-11 03:52:00,38.0,18.0,-100.00,ESE,114,5.0,5.0,44,0.00,,,0.40,,2013-03-11 10:52:00,
2013-03-11 04:12:00,37.0,14.0,-100.00,ESE,120,4.0,6.0,38,0.00,,,0.40,,2013-03-11 11:12:00,
2013-03-11 04:22:00,37.0,14.0,-100.00,ESE,120,4.0,6.0,38,0.00,,,0.40,,2013-03-11 11:22:00,
2013-03-11 04:32:00,37.0,14.0,-100.00,ESE,120,4.0,6.0,38,0.00,,,0.40,,2013-03-11 11:32:00,
2013-03-11 04:42:00,37.0,14.0,-100.00,ESE,120,4.0,6.0,38,0.00,,,0.40,,2013-03-11 11:42:00,
2013-03-11 04:52:00,37.0,14.0,-100.00,ESE,120,4.0,6.0,38,0.00,,,0.40,,2013-03-11 11:52:00,
2013-03-11 05:12:00,38.0,15.0,-100.00,ESE,116,4.0,6.0,39,0.00,,,-99.99,,2013-03-11 12:12:00,
2013-03-11 05:22:00,38.0,15.0,-100.00,ESE,116,4.0,6.0,39,0.00,,,-99.99,,2013-03-11 12:22:00,
2013-03-11 05:32:00,38.0,15.0,-100.00,ESE,116,4.0,6.0,39,0.00,,,-99.99,,2013-03-11 12:32:00,
2013-03-11 05:42:00,38.0,15.0,-100.00,ESE,116,4.0,6.0,39,0.00,,,-99.99,,2013-03-11 12:42:00,
2013-03-11 05:52:00,38.0,15.0,-100.00,ESE,116,4.0,6.0,39,0.00,,,-99.99,,2013-03-11 12:52:00,
2013-03-11 06:22:00,38.0,12.0,-100.00,ESE,119,4.0,7.0,34,0.00,,,-99.99,,2013-03-11 13:22:00,
2013-03-11 06:32:00,38.0,12.0,-100.00,ESE,119,4.0,7.0,34,0.00,,,-99.99,,2013-03-11 13:32:00,
2013-03-11 06:42:00,38.0,12.0,-100.00,ESE,119,4.0,7.0,34,0.00,,,-99.99,,2013-03-11 13:42:00,
2013-03-11 06:52:00,38.0,12.0,-100.00,ESE,119,4.0,7.0,34,0.00,,,-99.99,,2013-03-11 13:52:00,
2013-03-11 07:12:00,38.0,16.0,-100.00,ESE,116,5.0,6.0,41,0.00,,,-99.99,,2013-03-11 14:12:00,
2013-03-11 07:22:00,38.0,16.0,-100.00,ESE,116,5.0,6.0,41,0.00,,,-99.99,,2013-03-11 14:22:00,
2013-03-11 07:32:00,38.0,16.0,-100.00,ESE,116,5.0,6.0,41,0.00,,,-99.99,,2013-03-11 14:32:00,
2013-03-11 07:42:00,38.0,16.0,-100.00,ESE,116,5.0,6.0,41,0.00,,,-99.99,,2013-03-11 14:42:00,
2013-03-11 07:52:00,38.0,16.0,-100.00,ESE,116,5.0,6.0,41,0.00,,,-99.99,,2013-03-11 14:52:00,
2013-03-11 08:22:00,38.0,15.0,-100.00,ESE,120,5.0,7.0,39,0.00,,,0.40,,2013-03-11 15:22:00,
2013-03-11 08:32:00,38.0,15.0,-100.00,ESE,120,5.0,7.0,39,0.00,,,0.40,,2013-03-11 15:32:00,
2013-03-11 08:42:00,38.0,15.0,-100.00,ESE,120,5.0,7.0,39,0.00,,,0.40,,2013-03-11 15:42:00,
2013-03-11 08:52:00,38.0,15.0,-100.00,ESE,120,5.0,7.0,39,0.00,,,0.40,,2013-03-11 15:52:00,
2013-03-11 09:12:00,45.0,15.0,-100.00,ESE,114,4.0,6.0,29,0.00,,,0.40,,2013-03-11 16:12:00,
2013-03-11 09:22:00,45.0,15.0,-100.00,ESE,114,4.0,6.0,29,0.00,,,0.40,,2013-03-11 16:22:00,
2013-03-11 09:32:00,45.0,15.0,-100.00,ESE,114,4.0,6.0,29,0.00,,,0.40,,2013-03-11 16:32:00,
2013-03-11 09:42:00,45.0,15.0,-100.00,ESE,114,4.0,6.0,29,0.00,,,0.40,,2013-03-11 16:42:00,
2013-03-11 09:52:00,45.0,15.0,-100.00,ESE,114,4.0,6.0,29,0.00,,,0.40,,2013-03-11 16:52:00,
2013-03-11 10:13:00,55.0,18.0,-100.00,SE,131,3.0,6.0,23,0.00,,,-99.99,,2013-03-11 17:13:00,
2013-03-11 10:24:00,55.0,18.0,-100.00,SE,131,3.0,6.0,23,0.00,,,-99.99,,2013-03-11 17:24:00,
2013-03-11 10:42:00,55.0,18.0,-100.00,SE,131,3.0,6.0,23,0.00,,,-99.99,,2013-03-11 17:42:00,
2013-03-11 10:52:00,55.0,18.0,-100.00,SE,131,3.0,6.0,23,0.00,,,-99.99,,2013-03-11 17:52:00,
2013-03-11 11:12:00,60.0,16.0,-100.00,South,175,3.0,7.0,18,0.00,,,0.36,,2013-03-11 18:12:00,
2013-03-11 11:22:00,60.0,16.0,-100.00,South,175,3.0,7.0,18,0.00,,,0.36,,2013-03-11 18:22:00,
2013-03-11 11:42:00,60.0,16.0,-100.00,South,175,3.0,7.0,18,0.00,,,0.36,,2013-03-11 18:42:00,
2013-03-11 11:52:00,60.0,16.0,-100.00,South,175,3.0,7.0,18,0.00,,,0.36,,2013-03-11 18:52:00,
2013-03-11 12:22:00,62.0,19.0,-100.00,SW,236,3.0,8.0,19,-99.99,,,0.26,,2013-03-11 19:22:00,
2013-03-11 13:22:00,63.0,16.0,-100.00,WSW,256,4.0,10.0,16,-99.99,,,0.10,,2013-03-11 20:22:00,
2013-03-11 14:22:00,64.0,20.0,-100.00,WSW,252,4.0,9.0,18,-99.99,,,0.00,,2013-03-11 21:22:00,
2013-03-11 15:22:00,63.0,16.0,-100.00,West,275,6.0,11.0,16,-99.99,,,-99.99,,2013-03-11 22:22:00,
2013-03-11 16:12:00,63.0,19.0,-100.00,NW,324,5.0,9.0,18,0.00,,,0.00,,2013-03-11 23:12:00,
2013-03-11 16:22:00,63.0,19.0,-100.00,NW,324,5.0,9.0,18,0.00,,,0.00,,2013-03-11 23:22:00,
2013-03-11 16:42:00,63.0,19.0,-100.00,NW,324,5.0,9.0,18,0.00,,,0.00,,2013-03-11 23:42:00,
2013-03-11 16:52:00,63.0,19.0,-100.00,NW,324,5.0,9.0,18,0.00,,,0.00,,2013-03-11 23:52:00,
2013-03-11 17:12:00,62.0,28.0,-100.00,West,264,4.0,9.0,27,0.00,,,0.00,,2013-03-12 00:12:00,
2013-03-11 17:22:00,62.0,28.0,-100.00,West,264,4.0,9.0,27,0.00,,,0.00,,2013-03-12 00:22:00,
2013-03-11 17:32:00,62.0,28.0,-100.00,West,264,4.0,9.0,27,0.00,,,0.00,,2013-03-12 00:32:00,
2013-03-11 17:42:00,62.0,28.0,-100.00,West,264,4.0,9.0,27,0.00,,,0.00,,2013-03-12 00:42:00,
2013-03-11 17:52:00,62.0,28.0,-100.00,West,264,4.0,9.0,27,0.00,,,0.00,,2013-03-12 00:52:00,
2013-03-11 18:22:00,59.0,28.0,-100.00,WSW,245,3.0,7.0,30,-99.99,,,0.00,,2013-03-12 01:22:00,
2013-03-11 18:32:00,59.0,28.0,-100.00,WSW,245,3.0,7.0,30,-99.99,,,0.00,,2013-03-12 01:32:00,
2013-03-11 18:42:00,59.0,28.0,-100.00,WSW,245,3.0,7.0,30,-99.99,,,0.00,,2013-03-12 01:42:00,
2013-03-11 18:52:00,59.0,28.0,-100.00,WSW,245,3.0,7.0,30,-99.99,,,0.00,,2013-03-12 01:52:00,
2013-03-11 19:22:00,46.0,28.0,-100.00,SE,139,2.0,5.0,50,0.00,,,0.00,,2013-03-12 02:22:00,
2013-03-11 19:32:00,46.0,28.0,-100.00,SE,139,2.0,5.0,50,0.00,,,0.00,,2013-03-12 02:32:00,
2013-03-11 19:42:00,46.0,28.0,-100.00,SE,139,2.0,5.0,50,0.00,,,0.00,,2013-03-12 02:42:00,
2013-03-11 19:51:00,46.0,28.0,-100.00,SE,139,2.0,5.0,50,0.00,,,0.00,,2013-03-12 02:51:00,
2013-03-11 20:12:00,40.0,25.0,-100.00,SE,124,2.0,4.0,55,0.00,,,0.00,,2013-03-12 03:12:00,
2013-03-11 20:22:00,40.0,25.0,-100.00,SE,124,2.0,4.0,55,0.00,,,0.00,,2013-03-12 03:22:00,
2013-03-11 21:12:00,38.0,22.0,-100.00,SE,131,3.0,4.0,53,0.00,,,0.00,,2013-03-12 04:12:00,
2013-03-11 21:22:00,38.0,22.0,-100.00,SE,131,3.0,4.0,53,0.00,,,0.00,,2013-03-12 04:22:00,
2013-03-11 21:32:00,38.0,22.0,-100.00,SE,131,3.0,4.0,53,0.00,,,0.00,,2013-03-12 04:32:00,
2013-03-11 21:42:00,38.0,22.0,-100.00,SE,131,3.0,4.0,53,0.00,,,0.00,,2013-03-12 04:42:00,
2013-03-11 21:52:00,38.0,22.0,-100.00,SE,131,3.0,4.0,53,0.00,,,0.00,,2013-03-12 04:52:00,
2013-03-11 22:12:00,38.0,19.0,-100.00,ESE,122,3.0,5.0,46,0.00,,,0.00,,2013-03-12 05:12:00,
2013-03-11 22:22:00,38.0,19.0,-100.00,ESE,122,3.0,5.0,46,0.00,,,0.00,,2013-03-12 05:22:00,
2013-03-11 22:32:00,38.0,19.0,-100.00,ESE,122,3.0,5.0,46,0.00,,,0.00,,2013-03-12 05:32:00,
2013-03-11 22:42:00,38.0,19.0,-100.00,ESE,122,3.0,5.0,46,0.00,,,0.00,,2013-03-12 05:42:00,
2013-03-11 22:51:00,38.0,19.0,-100.00,ESE,122,3.0,5.0,46,0.00,,,0.00,,2013-03-12 05:51:00,
2013-03-11 23:12:00,37.0,16.0,-100.00,ESE,118,3.0,5.0,41,0.00,,,0.00,,2013-03-12 06:12:00,